Time;durP1;ratioP1;P1;durP2;ratioP2;P2;SDS_P1;SDS_P2;PMS_P1;PMS_P2;Temp;Humidity;BMP_temperature;BMP_pressure;BME280_temperature;BME280_humidity;BME280_pressure;Samples;Min_cycle;Max_cycle;Signal;HPM_P1;HPM_P2
2024/01/20 00:01:03;;;;;;;39.42;12.45;;;;;;;-3.36;100.00;102394.94;5038089;28;20087;-72
2024/01/20 00:03:29;;;;;;;42.05;14.02;;;;;;;-3.42;100.00;102399.31;5025996;28;20580;-73
2024/01/20 00:05:54;;;;;;;37.55;13.43;;;;;;;-3.50;100.00;102399.44;5015882;28;20037;-72
2024/01/20 00:08:20;;;;;;;44.97;13.93;;;;;;;-3.57;100.00;102387.72;5001152;28;20037;-73
2024/01/20 00:10:45;;;;;;;45.42;13.80;;;;;;;-3.55;100.00;102389.34;5023285;28;20029;-73
2024/01/20 00:13:11;;;;;;;40.53;12.98;;;;;;;-3.51;100.00;102392.69;5019660;28;20041;-73
2024/01/20 00:15:36;;;;;;;39.28;14.27;;;;;;;-3.47;100.00;102385.84;5021921;28;20036;-73
2024/01/20 00:18:03;;;;;;;32.70;13.10;;;;;;;-3.61;100.00;102389.47;5035593;28;20465;-73
2024/01/20 00:20:29;;;;;;;42.03;14.65;;;;;;;-3.54;100.00;102393.56;5038298;28;20030;-73
2024/01/20 00:22:54;;;;;;;34.10;14.02;;;;;;;-3.53;100.00;102397.78;5021797;28;20029;-74
2024/01/20 00:25:20;;;;;;;39.67;14.75;;;;;;;-3.59;100.00;102402.97;5038086;28;20433;-73
2024/01/20 00:27:49;;;;;;;35.95;13.93;;;;;;;-3.66;100.00;102392.94;5035689;28;20033;-73
2024/01/20 00:30:15;;;;;;;38.80;13.98;;;;;;;-3.63;100.00;102385.28;5035470;28;20043;-74
2024/01/20 00:32:40;;;;;;;40.08;14.38;;;;;;;-3.66;100.00;102392.94;5027677;28;20036;-73
2024/01/20 00:35:06;;;;;;;42.40;14.52;;;;;;;-3.73;100.00;102394.72;5026380;28;20060;-73
2024/01/20 00:37:33;;;;;;;42.47;15.35;;;;;;;-3.73;100.00;102399.81;5024108;28;20029;-73
2024/01/20 00:39:58;;;;;;;51.65;16.83;;;;;;;-3.67;100.00;102387.03;5034406;28;20057;-72
2024/01/20 00:42:24;;;;;;;36.60;13.50;;;;;;;-3.72;100.00;102397.25;5027815;28;20479;-73
2024/01/20 00:44:49;;;;;;;38.30;14.32;;;;;;;-3.78;100.00;102399.88;5018088;28;20041;-72
2024/01/20 00:47:15;;;;;;;37.40;14.00;;;;;;;-3.83;100.00;102396.56;5030448;28;20032;-73
2024/01/20 00:49:40;;;;;;;48.22;15.35;;;;;;;-3.83;100.00;102400.81;5029792;28;20651;-73
2024/01/20 00:52:05;;;;;;;42.67;16.52;;;;;;;-3.79;100.00;102398.19;5005947;28;20036;-72
2024/01/20 00:54:31;;;;;;;44.65;15.85;;;;;;;-3.76;100.00;102398.16;5020372;28;20038;-72
2024/01/20 00:56:56;;;;;;;42.80;15.88;;;;;;;-3.67;100.00;102398.88;5018342;28;20055;-72
2024/01/20 00:59:22;;;;;;;46.75;17.98;;;;;;;-3.73;100.00;102398.13;5012287;28;20071;-73
2024/01/20 01:01:48;;;;;;;49.17;16.08;;;;;;;-3.65;100.00;102405.59;5033764;28;20046;-72
2024/01/20 01:04:13;;;;;;;46.90;16.27;;;;;;;-3.64;100.00;102403.91;5010150;28;20095;-72
2024/01/20 01:06:39;;;;;;;50.55;16.63;;;;;;;-3.64;100.00;102412.34;5044046;28;20045;-72
2024/01/20 01:09:04;;;;;;;49.13;15.38;;;;;;;-3.73;100.00;102408.25;5030927;28;20029;-73
2024/01/20 01:11:30;;;;;;;51.40;17.20;;;;;;;-3.77;100.00;102415.94;5044374;28;20086;-73
2024/01/20 01:13:55;;;;;;;43.85;15.85;;;;;;;-3.84;100.00;102411.81;5037064;28;20029;-72
2024/01/20 01:16:21;;;;;;;55.25;17.83;;;;;;;-3.87;100.00;102416.94;5027574;28;20032;-73
2024/01/20 01:18:46;;;;;;;52.67;17.30;;;;;;;-3.82;100.00;102405.03;5032399;28;20033;-73
2024/01/20 01:21:12;;;;;;;49.65;17.52;;;;;;;-3.78;100.00;102414.28;5010146;28;20427;-73
2024/01/20 01:23:37;;;;;;;48.88;17.95;;;;;;;-3.78;100.00;102414.28;5026928;28;20038;-73
2024/01/20 01:26:03;;;;;;;53.65;16.88;;;;;;;-3.79;100.00;102410.03;5036047;28;20041;-72
2024/01/20 01:28:28;;;;;;;52.72;18.63;;;;;;;-3.85;100.00;102416.06;5030196;28;20029;-72
2024/01/20 01:30:54;;;;;;;53.05;18.23;;;;;;;-3.87;100.00;102412.69;5018910;28;20029;-73
2024/01/20 01:33:19;;;;;;;52.63;17.40;;;;;;;-3.75;100.00;102421.81;5029082;28;20041;-73
2024/01/20 01:35:44;;;;;;;48.42;17.20;;;;;;;-3.80;100.00;102423.59;5020557;28;20033;-72
2024/01/20 01:38:10;;;;;;;59.83;18.75;;;;;;;-3.70;100.00;102419.22;5030670;28;20407;-73
2024/01/20 01:40:35;;;;;;;50.17;18.10;;;;;;;-3.75;100.00;102420.13;5021735;28;20094;-72
2024/01/20 01:43:01;;;;;;;48.88;18.08;;;;;;;-3.74;100.00;102424.31;5015690;28;20033;-72
2024/01/20 01:45:26;;;;;;;43.63;17.48;;;;;;;-3.66;100.00;102429.28;5035906;28;20022;-72
2024/01/20 01:47:54;;;;;;;47.03;18.15;;;;;;;-3.72;100.00;102442.06;5035366;28;20025;-72
2024/01/20 01:50:20;;;;;;;48.75;16.45;;;;;;;-3.77;100.00;102436.22;5008476;28;20032;-72
2024/01/20 01:52:54;;;;;;;49.00;18.40;;;;;;;-3.71;100.00;102438.69;5036696;28;20483;-73
2024/01/20 01:55:23;;;;;;;54.08;19.05;;;;;;;-3.76;100.00;102441.25;5023999;28;20045;-72
2024/01/20 01:57:52;;;;;;;53.58;18.40;;;;;;;-3.77;100.00;102443.81;5016231;28;20466;-72
2024/01/20 02:00:17;;;;;;;47.05;17.60;;;;;;;-3.73;100.00;102443.75;5035101;28;20042;-72
2024/01/20 02:02:43;;;;;;;54.90;18.60;;;;;;;-3.65;100.00;102448.72;5028021;28;22124;-72
2024/01/20 02:05:09;;;;;;;50.67;16.88;;;;;;;-3.59;100.00;102453.69;5020711;28;20037;-72
2024/01/20 02:07:36;;;;;;;58.40;21.42;;;;;;;-3.58;100.00;102449.44;5016437;28;20033;-72
2024/01/20 02:10:04;;;;;;;52.30;19.77;;;;;;;-3.56;100.00;102443.50;5036506;28;20029;-72
2024/01/20 02:12:30;;;;;;;63.90;18.65;;;;;;;-3.55;100.00;102445.16;5028576;23;20033;-73
2024/01/20 02:14:56;;;;;;;57.30;18.92;;;;;;;-3.58;100.00;102449.44;5004202;28;20546;-72
2024/01/20 02:17:21;;;;;;;59.67;17.70;;;;;;;-3.62;100.00;102461.31;5008624;28;20168;-73
2024/01/20 02:19:47;;;;;;;58.05;18.42;;;;;;;-3.60;100.00;102462.16;5012514;28;20531;-73
2024/01/20 02:22:16;;;;;;;60.83;19.70;;;;;;;-3.54;100.00;102456.16;5021543;28;20557;-71
2024/01/20 02:24:47;;;;;;;57.67;19.83;;;;;;;-3.48;100.00;102463.66;5021055;28;20132;-73
2024/01/20 02:27:13;;;;;;;50.35;18.80;;;;;;;-3.53;100.00;102460.34;5024302;28;20502;-72
2024/01/20 02:29:39;;;;;;;66.80;20.25;;;;;;;-3.61;100.00;102462.19;5025805;28;20045;-73
2024/01/20 02:32:05;;;;;;;55.65;19.35;;;;;;;-3.61;100.00;102464.72;5017811;28;20486;-73
2024/01/20 02:34:30;;;;;;;59.97;19.02;;;;;;;-3.62;100.00;102479.06;5027997;28;20037;-72
2024/01/20 02:36:56;;;;;;;58.55;19.35;;;;;;;-3.56;100.00;102471.41;5017185;28;20036;-73
2024/01/20 02:39:21;;;;;;;61.72;19.67;;;;;;;-3.58;100.00;102475.66;5027604;28;23549;-73
2024/01/20 02:41:47;;;;;;;63.63;19.98;;;;;;;-3.43;100.00;102471.19;5023549;28;20091;-71
2024/01/20 02:44:13;;;;;;;57.53;19.48;;;;;;;-3.51;100.00;102466.25;5029786;28;20034;-73
2024/01/20 02:46:38;;;;;;;59.80;19.92;;;;;;;-3.44;100.00;102469.53;5010534;28;20076;-73
2024/01/20 02:49:04;;;;;;;63.42;19.58;;;;;;;-3.50;100.00;102472.13;5020489;28;20045;-72
2024/01/20 02:51:29;;;;;;;56.55;19.67;;;;;;;-3.52;100.00;102474.72;5018859;28;20034;-72
2024/01/20 02:53:55;;;;;;;57.85;19.70;;;;;;;-3.54;100.00;102474.75;5018487;28;20073;-71
2024/01/20 02:56:22;;;;;;;59.85;19.08;;;;;;;-3.32;100.00;102475.22;5018342;28;20033;-72
2024/01/20 02:58:48;;;;;;;54.88;18.63;;;;;;;-3.46;100.00;102472.09;5018804;28;20060;-73
2024/01/20 03:01:14;;;;;;;58.92;19.75;;;;;;;-3.50;100.00;102477.22;5028403;28;20045;-72
2024/01/20 03:03:40;;;;;;;52.35;18.50;;;;;;;-3.42;100.00;102466.09;5011883;28;20038;-71
2024/01/20 03:06:06;;;;;;;53.60;17.80;;;;;;;-3.45;100.00;102465.31;5020956;28;20034;-72
2024/01/20 03:08:32;;;;;;;64.25;19.67;;;;;;;-3.35;100.00;102466.84;4991325;28;20033;-73
2024/01/20 03:10:58;;;;;;;48.60;18.20;;;;;;;-3.44;100.00;102467.81;5018477;28;20476;-72
2024/01/20 03:13:23;;;;;;;61.58;18.95;;;;;;;-3.45;100.00;102453.44;5019245;28;20040;-72
2024/01/20 03:15:49;;;;;;;53.17;16.58;;;;;;;-3.47;100.00;102454.34;5023010;28;20514;-73
2024/01/20 03:18:14;;;;;;;56.53;19.83;;;;;;;-3.52;100.00;102456.97;5015210;28;20045;-73
2024/01/20 03:20:40;;;;;;;56.00;19.63;;;;;;;-3.54;100.00;102464.59;5021163;28;20051;-72
2024/01/20 03:23:06;;;;;;;53.70;18.13;;;;;;;-3.55;100.00;102465.44;5022939;28;20033;-73
2024/01/20 03:25:31;;;;;;;53.75;18.40;;;;;;;-3.49;100.00;102461.97;5029865;28;20037;-71
2024/01/20 03:27:57;;;;;;;54.45;20.00;;;;;;;-3.50;100.00;102464.53;5012842;28;20029;-72
2024/01/20 03:30:23;;;;;;;63.90;19.50;;;;;;;-3.50;100.00;102462.84;5015893;28;20063;-72
2024/01/20 03:32:48;;;;;;;54.58;18.70;;;;;;;-3.48;100.00;102463.66;4999583;28;20109;-73
2024/01/20 03:35:14;;;;;;;60.33;19.73;;;;;;;-3.42;100.00;102460.19;5035167;28;20495;-73
2024/01/20 03:37:39;;;;;;;60.42;20.10;;;;;;;-3.50;100.00;102454.38;5015984;28;20029;-73
2024/01/20 03:40:05;;;;;;;53.00;19.75;;;;;;;-3.41;100.00;102452.56;5019652;28;20045;-73
2024/01/20 03:42:31;;;;;;;60.72;21.15;;;;;;;-3.49;100.00;102456.91;5025921;28;20079;-73
2024/01/20 03:44:56;;;;;;;54.58;18.60;;;;;;;-3.49;100.00;102456.91;5005937;28;20416;-71
2024/01/20 03:47:22;;;;;;;65.05;20.75;;;;;;;-3.45;100.00;102455.97;5019096;28;20025;-73
2024/01/20 03:49:47;;;;;;;53.13;18.92;;;;;;;-3.46;100.00;102458.56;5011880;28;20041;-71
2024/01/20 03:52:13;;;;;;;57.33;19.17;;;;;;;-3.37;100.00;102458.38;5021081;28;20046;-73
2024/01/20 03:54:39;;;;;;;55.78;18.75;;;;;;;-3.43;100.00;102458.50;5004816;28;20041;-73
2024/01/20 03:57:05;;;;;;;55.33;20.58;;;;;;;-3.48;100.00;102463.66;5018031;28;20029;-71
2024/01/20 03:59:30;;;;;;;61.97;19.48;;;;;;;-3.40;100.00;102474.50;5020822;28;20053;-72
2024/01/20 04:01:56;;;;;;;64.72;20.38;;;;;;;-3.27;100.00;102472.63;5017079;28;20045;-73
2024/01/20 04:04:21;;;;;;;58.83;20.17;;;;;;;-3.32;100.00;102479.47;5015643;28;20041;-72
2024/01/20 04:06:47;;;;;;;56.92;19.17;;;;;;;-3.26;100.00;102483.59;5018441;28;20041;-71
2024/01/20 04:09:12;;;;;;;55.88;20.95;;;;;;;-3.33;100.00;102485.41;5023253;28;20037;-73
2024/01/20 04:11:38;;;;;;;55.00;20.02;;;;;;;-3.38;100.00;102475.31;5021584;28;20030;-73
2024/01/20 04:14:03;;;;;;;50.28;19.20;;;;;;;-3.45;100.00;102480.53;5021995;28;20037;-72
2024/01/20 04:16:30;;;;;;;54.63;18.85;;;;;;;-3.46;100.00;102486.47;5026365;28;20104;-73
2024/01/20 04:18:55;;;;;;;60.75;21.45;;;;;;;-3.48;100.00;102491.56;4999093;28;20514;-72
2024/01/20 04:21:22;;;;;;;58.58;20.17;;;;;;;-3.40;100.00;102494.81;5022956;28;20029;-72
2024/01/20 04:23:48;;;;;;;67.47;21.60;;;;;;;-3.36;100.00;102496.44;5022313;28;20049;-72
2024/01/20 04:26:14;;;;;;;63.55;20.83;;;;;;;-3.42;100.00;102505.84;5021188;28;20033;-72
2024/01/20 04:28:39;;;;;;;59.15;19.52;;;;;;;-3.39;100.00;102506.66;5034804;28;20099;-70
2024/01/20 04:31:05;;;;;;;63.22;20.55;;;;;;;-3.40;100.00;102499.88;5011471;28;20037;-73
2024/01/20 04:33:30;;;;;;;64.07;20.48;;;;;;;-3.27;100.00;102502.22;5025502;28;20033;-73
2024/01/20 04:35:56;;;;;;;60.15;20.17;;;;;;;-3.34;100.00;102492.16;5025678;28;20404;-73
2024/01/20 04:38:21;;;;;;;58.67;18.73;;;;;;;-3.32;100.00;102498.03;5007786;28;20088;-72
2024/01/20 04:40:47;;;;;;;60.13;20.48;;;;;;;-3.38;100.00;102503.22;5004175;28;20484;-73
2024/01/20 04:43:12;;;;;;;62.10;21.30;;;;;;;-3.48;100.00;102501.72;5021061;28;20041;-73
2024/01/20 04:45:38;;;;;;;58.10;20.73;;;;;;;-3.42;100.00;102500.78;5022693;28;20523;-72
2024/01/20 04:48:04;;;;;;;67.07;19.27;;;;;;;-3.41;100.00;102517.66;5016160;28;20545;-73
2024/01/20 04:50:29;;;;;;;65.18;20.60;;;;;;;-3.46;100.00;102514.38;5017972;28;20452;-72
2024/01/20 04:52:55;;;;;;;55.67;21.23;;;;;;;-3.36;100.00;102514.19;5008699;28;20029;-72
2024/01/20 04:55:20;;;;;;;67.90;22.05;;;;;;;-3.38;100.00;102515.91;5009213;28;20480;-72
2024/01/20 04:57:46;;;;;;;70.38;21.67;;;;;;;-3.41;100.00;102518.53;5002697;28;20488;-73
2024/01/20 05:00:13;;;;;;;66.88;21.23;;;;;;;-3.30;100.00;102517.50;5022329;28;20457;-73
2024/01/20 05:02:38;;;;;;;68.28;22.58;;;;;;;-3.39;100.00;102518.47;5025876;28;20068;-73
2024/01/20 05:05:04;;;;;;;66.53;22.52;;;;;;;-3.37;100.00;102524.34;5020017;28;20395;-73
2024/01/20 05:07:30;;;;;;;74.13;26.08;;;;;;;-3.38;100.00;102528.59;5026035;28;20116;-73
2024/01/20 05:09:55;;;;;;;66.15;22.45;;;;;;;-3.37;100.00;102534.50;5017174;28;20033;-73
2024/01/20 05:12:21;;;;;;;67.38;21.70;;;;;;;-3.42;100.00;102539.66;5017290;28;20447;-73
2024/01/20 05:14:46;;;;;;;58.45;21.20;;;;;;;-3.44;100.00;102536.31;5025034;28;20046;-72
2024/01/20 05:17:12;;;;;;;69.57;21.90;;;;;;;-3.52;100.00;102544.03;5027528;28;20031;-72
2024/01/20 05:19:38;;;;;;;77.65;22.65;;;;;;;-3.48;100.00;102544.84;4990370;28;20579;-73
2024/01/20 05:22:04;;;;;;;76.28;24.10;;;;;;;-3.45;100.00;102549.84;5023441;28;20041;-72
2024/01/20 05:24:29;;;;;;;69.85;22.92;;;;;;;-3.45;100.00;102543.94;5041644;28;20095;-72
2024/01/20 05:26:55;;;;;;;66.82;21.98;;;;;;;-3.53;100.00;102546.59;5019042;28;20033;-72
2024/01/20 05:29:21;;;;;;;72.97;25.02;;;;;;;-3.45;100.00;102536.31;5019948;28;20124;-72
2024/01/20 05:31:46;;;;;;;75.38;22.27;;;;;;;-3.53;100.00;102546.59;5006211;28;20068;-73
2024/01/20 05:34:12;;;;;;;70.32;21.58;;;;;;;-3.39;100.00;102549.78;5030703;28;20443;-72
2024/01/20 05:36:37;;;;;;;70.28;22.85;;;;;;;-3.48;100.00;102547.38;5023402;28;20025;-72
2024/01/20 05:39:04;;;;;;;76.75;23.80;;;;;;;-3.50;100.00;102546.56;5016308;28;20507;-73
2024/01/20 05:41:29;;;;;;;73.90;22.83;;;;;;;-3.55;100.00;102541.53;5026587;28;20125;-72
2024/01/20 05:43:55;;;;;;;69.47;21.50;;;;;;;-3.53;100.00;102541.53;5003272;28;20189;-72
2024/01/20 05:46:21;;;;;;;73.95;22.23;;;;;;;-3.41;100.00;102555.72;5003917;28;20045;-73
2024/01/20 05:48:46;;;;;;;71.25;23.35;;;;;;;-3.32;100.00;102553.03;5005626;28;20034;-72
2024/01/20 05:51:12;;;;;;;55.50;19.05;;;;;;;-3.47;100.00;102556.63;5005585;28;20038;-72
2024/01/20 05:53:37;;;;;;;64.70;20.35;;;;;;;-3.42;100.00;102562.50;5003890;28;20026;-73
2024/01/20 05:56:03;;;;;;;62.72;20.98;;;;;;;-3.47;100.00;102561.72;5015829;28;20041;-72
2024/01/20 05:58:28;;;;;;;74.40;21.10;;;;;;;-3.30;100.00;102553.03;4996151;28;20084;-73
2024/01/20 06:00:54;;;;;;;70.45;21.73;;;;;;;-3.44;100.00;102558.31;5024998;28;20332;-73
2024/01/20 06:03:20;;;;;;;70.50;21.80;;;;;;;-3.51;100.00;102560.09;5018292;28;20036;-73
2024/01/20 06:05:45;;;;;;;70.75;19.83;;;;;;;-3.45;100.00;102554.91;5020774;28;20033;-73
2024/01/20 06:08:11;;;;;;;68.10;20.15;;;;;;;-3.51;100.00;102555.00;5025018;28;20453;-73
2024/01/20 06:10:36;;;;;;;75.53;23.40;;;;;;;-3.41;100.00;102558.25;5025405;28;20028;-72
2024/01/20 06:13:02;;;;;;;89.78;31.83;;;;;;;-3.35;100.00;102568.31;5037494;28;20084;-72
2024/01/20 06:15:27;;;;;;;79.10;27.00;;;;;;;-3.48;100.00;102571.88;5007728;28;20037;-72
2024/01/20 06:17:53;;;;;;;82.50;28.27;;;;;;;-3.43;100.00;102573.50;5021253;28;20045;-73
2024/01/20 06:20:19;;;;;;;63.28;21.42;;;;;;;-3.39;100.00;102582.75;5028042;28;20056;-73
2024/01/20 06:22:45;;;;;;;66.65;22.67;;;;;;;-3.49;100.00;102580.38;5007265;28;20033;-72
2024/01/20 06:25:10;;;;;;;75.38;28.58;;;;;;;-3.45;100.00;102587.06;5012609;28;20034;-73
2024/01/20 06:27:36;;;;;;;62.53;19.98;;;;;;;-3.58;100.00;102594.00;5003824;28;20496;-73
2024/01/20 06:30:03;;;;;;;62.67;20.00;;;;;;;-3.53;100.00;102600.69;5006263;28;20057;-72
2024/01/20 06:32:29;;;;;;;57.35;20.85;;;;;;;-3.54;100.00;102605.81;5017839;28;20049;-72
2024/01/20 06:34:54;;;;;;;59.38;19.92;;;;;;;-3.51;100.00;102603.22;5025499;28;20531;-72
2024/01/20 06:37:19;;;;;;;62.67;20.23;;;;;;;-3.50;100.00;102599.81;5024270;28;20049;-72
2024/01/20 06:39:46;;;;;;;69.78;20.70;;;;;;;-3.48;100.00;102599.78;5025089;28;20041;-72
2024/01/20 06:42:12;;;;;;;66.07;20.80;;;;;;;-3.37;100.00;102595.41;5011034;28;20033;-73
2024/01/20 06:44:38;;;;;;;64.88;19.85;;;;;;;-3.41;100.00;102596.31;5012856;28;20132;-72
2024/01/20 06:47:04;;;;;;;56.40;19.35;;;;;;;-3.49;100.00;102601.50;5022875;28;20552;-72
2024/01/20 06:49:29;;;;;;;56.30;19.55;;;;;;;-3.57;100.00;102603.31;5017270;28;20041;-72
2024/01/20 06:51:55;;;;;;;62.50;18.85;;;;;;;-3.54;100.00;102604.09;5005241;28;20033;-71
2024/01/20 06:54:20;;;;;;;59.50;20.23;;;;;;;-3.59;100.00;102607.56;5001690;28;20026;-73
2024/01/20 06:56:45;;;;;;;54.65;18.85;;;;;;;-3.55;100.00;102609.19;5026887;28;20479;-73
2024/01/20 06:59:11;;;;;;;57.03;19.75;;;;;;;-3.64;100.00;102616.91;5001659;28;20060;-72
2024/01/20 07:01:36;;;;;;;56.08;18.15;;;;;;;-3.67;100.00;102611.88;5018961;28;20687;-72
2024/01/20 07:04:03;;;;;;;58.80;20.52;;;;;;;-3.76;100.00;102617.91;5019337;28;20396;-72
2024/01/20 07:06:29;;;;;;;55.00;18.05;;;;;;;-3.65;100.00;102620.31;5019314;28;20033;-72
2024/01/20 07:08:54;;;;;;;58.03;18.35;;;;;;;-3.74;100.00;102621.28;5008682;28;20492;-71
2024/01/20 07:11:21;;;;;;;59.58;17.88;;;;;;;-3.75;100.00;102624.66;4989846;28;20036;-72
2024/01/20 07:13:46;;;;;;;57.97;18.48;;;;;;;-3.75;100.00;102629.72;5018557;28;20033;-72
2024/01/20 07:16:13;;;;;;;55.05;18.42;;;;;;;-3.81;100.00;102625.56;5005410;28;20037;-73
2024/01/20 07:18:39;;;;;;;48.85;15.57;;;;;;;-3.74;100.00;102633.94;5012026;28;20046;-73
2024/01/20 07:21:06;;;;;;;132.93;50.58;;;;;;;-3.78;100.00;102640.75;5019982;28;20061;-73
2024/01/20 07:23:31;;;;;;;126.35;42.28;;;;;;;-3.87;100.00;102640.03;5020866;28;20030;-73
2024/01/20 07:25:58;;;;;;;107.22;34.97;;;;;;;-3.67;100.00;102638.09;5010970;28;20383;-72
2024/01/20 07:28:27;;;;;;;65.32;22.52;;;;;;;-3.87;100.00;102640.03;5023254;28;20103;-72
2024/01/20 07:30:52;;;;;;;48.22;16.88;;;;;;;-3.86;100.00;102629.88;4994970;28;20048;-72
2024/01/20 07:33:18;;;;;;;75.68;26.35;;;;;;;-3.75;100.00;102637.31;5023988;28;20037;-72
2024/01/20 07:35:44;;;;;;;57.20;19.25;;;;;;;-3.87;100.00;102627.34;4998875;28;20038;-72
2024/01/20 07:38:09;;;;;;;63.38;24.95;;;;;;;-3.76;100.00;102636.50;5019217;28;20037;-72
2024/01/20 07:40:35;;;;;;;57.22;21.75;;;;;;;-3.77;100.00;102641.59;5005295;28;20037;-72
2024/01/20 07:43:00;;;;;;;75.35;32.38;;;;;;;-3.83;100.00;102645.03;5021160;28;20404;-72
2024/01/20 07:45:30;;;;;;;43.65;18.63;;;;;;;-3.80;100.00;102639.94;5018647;28;20034;-72
2024/01/20 07:47:55;;;;;;;61.30;23.30;;;;;;;-3.91;100.00;102634.97;5005567;28;20041;-72
2024/01/20 07:50:21;;;;;;;111.45;42.60;;;;;;;-3.84;100.00;102638.31;5002304;28;20030;-70
2024/01/20 07:52:46;;;;;;;71.18;25.73;;;;;;;-3.78;100.00;102635.69;4990947;28;20029;-72
2024/01/20 07:55:12;;;;;;;102.45;35.85;;;;;;;-3.89;100.00;102654.41;5004332;28;21623;-72
2024/01/20 07:57:39;;;;;;;55.63;22.38;;;;;;;-3.76;100.00;102654.25;5023970;28;20075;-72
2024/01/20 08:00:05;;;;;;;114.53;45.08;;;;;;;-3.94;100.00;102669.66;5023198;28;20038;-72
2024/01/20 08:02:33;;;;;;;49.03;19.45;;;;;;;-3.93;100.00;102672.19;5006284;28;20419;-70
2024/01/20 08:04:59;;;;;;;46.38;20.13;;;;;;;-3.89;100.00;102667.94;4990881;28;20030;-73
2024/01/20 08:07:25;;;;;;;44.78;16.33;;;;;;;-3.98;100.00;102671.38;5007102;28;20117;-72
2024/01/20 08:09:50;;;;;;;43.65;16.05;;;;;;;-3.95;100.00;102668.84;5034826;28;20029;-72
2024/01/20 08:12:16;;;;;;;44.65;18.77;;;;;;;-3.97;100.00;102675.63;5028744;28;20041;-71
2024/01/20 08:14:41;;;;;;;40.22;15.68;;;;;;;-3.93;100.00;102673.88;5044016;28;20042;-72
2024/01/20 08:17:07;;;;;;;52.40;19.95;;;;;;;-4.02;100.00;102677.34;5024874;28;20041;-72
2024/01/20 08:19:33;;;;;;;39.42;14.63;;;;;;;-3.89;100.00;102677.25;5020633;28;20046;-72
2024/01/20 08:21:59;;;;;;;41.20;16.15;;;;;;;-3.93;100.00;102671.34;5009631;28;20033;-72
2024/01/20 08:24:24;;;;;;;44.05;15.95;;;;;;;-3.80;100.00;102660.22;5021949;28;20480;-72
2024/01/20 08:26:49;;;;;;;35.13;13.60;;;;;;;-3.89;100.00;102657.78;5037424;28;20030;-72
2024/01/20 08:29:17;;;;;;;41.88;14.88;;;;;;;-3.93;100.00;102658.69;5026615;28;20041;-72
2024/01/20 08:31:42;;;;;;;38.08;14.45;;;;;;;-3.98;100.00;102661.25;5029105;28;20064;-72
2024/01/20 08:34:08;;;;;;;53.58;20.25;;;;;;;-3.99;100.00;102656.22;5020179;28;20057;-72
2024/01/20 08:36:33;;;;;;;102.78;38.75;;;;;;;-3.85;100.00;102661.13;5021642;28;20037;-73
2024/01/20 08:38:59;;;;;;;62.85;26.30;;;;;;;-3.95;100.00;102666.31;5023720;28;20447;-72
2024/01/20 08:41:24;;;;;;;35.60;13.45;;;;;;;-3.94;100.00;102664.59;5011930;28;20451;-71
2024/01/20 08:43:51;;;;;;;38.97;14.40;;;;;;;-3.97;100.00;102664.66;5010043;28;20037;-72
2024/01/20 08:46:16;;;;;;;44.00;14.85;;;;;;;-3.97;100.00;102675.63;5027962;28;20026;-73
2024/01/20 08:48:42;;;;;;;37.83;14.70;;;;;;;-4.06;100.00;102682.47;4983885;28;20529;-73
2024/01/20 08:51:07;;;;;;;39.83;14.13;;;;;;;-4.00;100.00;102684.94;5027110;28;20037;-72
2024/01/20 08:53:33;;;;;;;32.75;13.80;;;;;;;-3.96;100.00;102686.59;4994858;28;20033;-72
2024/01/20 08:56:00;;;;;;;34.30;13.68;;;;;;;-3.97;100.00;102685.75;5024801;28;20037;-73
2024/01/20 08:58:25;;;;;;;36.13;13.73;;;;;;;-4.07;100.00;102689.22;5008558;28;20120;-72
2024/01/20 09:00:51;;;;;;;30.38;12.70;;;;;;;-4.05;100.00;102697.69;5026763;28;20046;-71
2024/01/20 09:03:16;;;;;;;32.97;12.80;;;;;;;-4.02;100.00;102696.78;5026513;28;20038;-72
2024/01/20 09:05:42;;;;;;;38.95;14.00;;;;;;;-4.05;100.00;102701.88;5020884;28;20052;-72
2024/01/20 09:08:09;;;;;;;36.67;13.98;;;;;;;-4.03;100.00;102700.19;5019455;28;20045;-72
2024/01/20 09:10:36;;;;;;;53.38;17.15;;;;;;;-4.09;100.00;102698.53;5004223;28;20030;-72
2024/01/20 09:13:05;;;;;;;44.13;16.23;;;;;;;-4.23;100.00;102701.22;5007907;28;20111;-72
2024/01/20 09:15:31;;;;;;;55.03;19.60;;;;;;;-4.28;100.00;102702.13;5027110;28;20483;-72
2024/01/20 09:17:57;;;;;;;68.93;20.90;;;;;;;-4.28;100.00;102697.03;5023101;28;20033;-72
2024/01/20 09:20:22;;;;;;;45.85;15.75;;;;;;;-4.47;100.00;102703.97;5024766;28;20075;-72
2024/01/20 09:22:48;;;;;;;46.88;18.25;;;;;;;-4.48;100.00;102712.41;5027539;28;20060;-72
2024/01/20 09:25:14;;;;;;;53.22;18.60;;;;;;;-4.51;100.00;102701.44;5028116;28;20039;-72
2024/01/20 09:27:39;;;;;;;43.45;15.88;;;;;;;-4.49;100.00;102706.50;5030915;28;20040;-73
2024/01/20 09:30:07;;;;;;;49.50;17.85;;;;;;;-4.63;100.00;102706.63;5018124;28;20085;-73
2024/01/20 09:32:33;;;;;;;49.13;16.02;;;;;;;-4.52;100.00;102707.38;5018732;28;20744;-72
2024/01/20 09:35:03;;;;;;;58.15;19.63;;;;;;;-4.57;100.00;102710.81;5041013;28;20075;-72
2024/01/20 09:37:29;;;;;;;39.25;15.57;;;;;;;-4.50;100.00;102714.97;4998055;28;20037;-73
2024/01/20 09:39:57;;;;;;;44.97;16.92;;;;;;;-4.46;100.00;102720.81;4991436;28;20085;-73
2024/01/20 09:42:23;;;;;;;144.63;53.85;;;;;;;-4.43;100.00;102728.41;5005641;28;20041;-73
2024/01/20 09:44:49;;;;;;;46.33;17.52;;;;;;;-4.47;100.00;102730.13;5006378;28;20432;-73
2024/01/20 09:47:14;;;;;;;59.85;20.10;;;;;;;-4.38;100.00;102732.59;5005773;28;20030;-73
2024/01/20 09:49:40;;;;;;;46.38;16.38;;;;;;;-4.32;100.00;102732.53;5015203;28;20041;-72
2024/01/20 09:52:14;;;;;;;41.55;17.35;;;;;;;-4.23;100.00;102730.78;5006896;28;20026;-72
2024/01/20 09:55:15;;;;;;;47.70;16.17;;;;;;;-4.20;100.00;102731.59;5024482;28;20884;-73
2024/01/20 09:57:42;;;;;;;62.90;20.40;;;;;;;-4.20;100.00;102738.34;5040062;28;20085;-73
2024/01/20 10:00:08;;;;;;;51.08;21.23;;;;;;;-4.14;100.00;102734.06;5022989;28;20053;-73
2024/01/20 10:02:40;;;;;;;46.45;19.38;;;;;;;-4.10;100.00;102734.88;5025348;28;20041;-72
2024/01/20 10:05:09;;;;;;;45.75;17.02;;;;;;;-4.05;100.00;102735.69;5027080;28;20084;-72
2024/01/20 10:07:35;;;;;;;62.17;21.58;;;;;;;-3.93;100.00;102735.56;5023353;28;20026;-73
2024/01/20 10:10:01;;;;;;;39.47;16.77;;;;;;;-3.90;100.00;102737.22;5023869;28;20061;-72
2024/01/20 10:12:26;;;;;;;38.55;14.70;;;;;;;-3.85;100.00;102732.94;5027793;28;20404;-72
2024/01/20 10:14:52;;;;;;;38.85;16.58;;;;;;;-3.79;100.00;102737.13;5026939;28;20033;-72
2024/01/20 10:17:18;;;;;;;41.90;15.63;;;;;;;-3.86;100.00;102740.56;5019112;28;20062;-73
2024/01/20 10:19:44;;;;;;;41.25;14.88;;;;;;;-3.78;100.00;102732.03;5020007;28;20139;-72
2024/01/20 10:22:10;;;;;;;43.00;15.50;;;;;;;-3.68;99.87;102734.47;5026646;28;20037;-72
2024/01/20 10:24:52;;;;;;;47.15;15.68;;;;;;;-3.80;100.00;102718.53;5017957;28;20042;-72
2024/01/20 10:27:19;;;;;;;38.83;14.48;;;;;;;-3.79;100.00;102715.13;5031721;28;20464;-72
2024/01/20 10:29:46;;;;;;;43.35;16.35;;;;;;;-3.76;100.00;102707.50;5037253;28;20041;-72
2024/01/20 10:32:12;;;;;;;48.10;17.85;;;;;;;-3.75;100.00;102711.72;5015438;28;20075;-72
2024/01/20 10:34:38;;;;;;;35.53;13.68;;;;;;;-3.68;100.00;102704.88;5027858;28;20098;-73
2024/01/20 10:37:28;;;;;;;37.47;14.48;;;;;;;-3.45;100.00;102698.69;5021213;28;20474;-72
2024/01/20 10:39:55;;;;;;;42.92;15.07;;;;;;;-3.45;100.00;102699.50;5020472;28;20041;-73
2024/01/20 10:42:22;;;;;;;41.55;14.57;;;;;;;-3.55;100.00;102693.72;4981061;28;20132;-73
2024/01/20 10:45:08;;;;;;;43.90;12.88;;;;;;;-3.52;100.00;102691.16;4998461;28;20506;-72
2024/01/20 10:47:41;;;;;;;40.00;13.25;;;;;;;-3.56;100.00;102694.59;5024987;28;20034;-72
2024/01/20 10:50:07;;;;;;;;;;;;;;;-3.53;99.48;102702.16;5028115;28;20064;-73
2024/01/20 10:52:34;;;;;;;33.97;11.50;;;;;;;-3.58;99.90;102696.31;5025149;28;19967;-72
2024/01/20 10:55:04;;;;;;;32.22;12.57;;;;;;;-3.46;99.71;102699.56;4993721;28;20022;-73
2024/01/20 10:57:31;;;;;;;38.72;10.25;;;;;;;-3.49;99.08;102697.88;5025898;28;20450;-72